sensor_id;sensor_type;location;lat;lon;timestamp;P1;durP1;ratioP1;P2;durP2;ratioP2
4106;SDS011;21906;50.812;7.132;2022-08-21T00:01:48;7.73;;;7.03;;
4106;SDS011;21906;50.812;7.132;2022-08-21T00:04:13;8.40;;;7.60;;
4106;SDS011;21906;50.812;7.132;2022-08-21T00:06:39;7.43;;;6.73;;
4106;SDS011;21906;50.812;7.132;2022-08-21T00:09:06;8.77;;;7.17;;
4106;SDS011;21906;50.812;7.132;2022-08-21T00:11:33;7.60;;;7.00;;
4106;SDS011;21906;50.812;7.132;2022-08-21T00:14:00;8.37;;;7.53;;
4106;SDS011;21906;50.812;7.132;2022-08-21T00:16:26;8.13;;;7.43;;
4106;SDS011;21906;50.812;7.132;2022-08-21T00:18:52;8.33;;;7.53;;
4106;SDS011;21906;50.812;7.132;2022-08-21T00:21:18;8.37;;;7.57;;
4106;SDS011;21906;50.812;7.132;2022-08-21T00:23:43;8.63;;;7.83;;
4106;SDS011;21906;50.812;7.132;2022-08-21T00:26:09;10.00;;;7.50;;
4106;SDS011;21906;50.812;7.132;2022-08-21T00:28:35;7.80;;;7.07;;
4106;SDS011;21906;50.812;7.132;2022-08-21T00:31:01;8.40;;;7.60;;
4106;SDS011;21906;50.812;7.132;2022-08-21T00:33:29;8.10;;;7.40;;
4106;SDS011;21906;50.812;7.132;2022-08-21T00:35:55;7.73;;;7.13;;
4106;SDS011;21906;50.812;7.132;2022-08-21T00:38:21;8.00;;;7.30;;
4106;SDS011;21906;50.812;7.132;2022-08-21T00:40:48;8.77;;;7.37;;
4106;SDS011;21906;50.812;7.132;2022-08-21T00:43:18;8.30;;;7.60;;
4106;SDS011;21906;50.812;7.132;2022-08-21T00:45:49;7.60;;;7.00;;
4106;SDS011;21906;50.812;7.132;2022-08-21T00:48:16;7.63;;;6.93;;
4106;SDS011;21906;50.812;7.132;2022-08-21T00:50:55;9.00;;;7.30;;
4106;SDS011;21906;50.812;7.132;2022-08-21T00:53:33;8.10;;;7.37;;
4106;SDS011;21906;50.812;7.132;2022-08-21T00:56:03;8.17;;;7.47;;
4106;SDS011;21906;50.812;7.132;2022-08-21T00:58:31;8.50;;;7.60;;
4106;SDS011;21906;50.812;7.132;2022-08-21T01:01:00;8.27;;;7.47;;
4106;SDS011;21906;50.812;7.132;2022-08-21T01:03:29;9.40;;;7.33;;
4106;SDS011;21906;50.812;7.132;2022-08-21T01:05:55;8.53;;;7.70;;
4106;SDS011;21906;50.812;7.132;2022-08-21T01:08:21;7.93;;;7.23;;
4106;SDS011;21906;50.812;7.132;2022-08-21T01:10:47;7.30;;;6.70;;
4106;SDS011;21906;50.812;7.132;2022-08-21T01:13:14;8.43;;;7.03;;
4106;SDS011;21906;50.812;7.132;2022-08-21T01:15:42;7.37;;;6.87;;
4106;SDS011;21906;50.812;7.132;2022-08-21T01:18:10;7.80;;;7.10;;
4106;SDS011;21906;50.812;7.132;2022-08-21T01:20:37;7.73;;;7.13;;
4106;SDS011;21906;50.812;7.132;2022-08-21T01:23:05;7.17;;;6.50;;
4106;SDS011;21906;50.812;7.132;2022-08-21T01:25:32;7.33;;;6.77;;
4106;SDS011;21906;50.812;7.132;2022-08-21T01:27:59;8.33;;;7.53;;
4106;SDS011;21906;50.812;7.132;2022-08-21T01:30:31;7.83;;;7.13;;
4106;SDS011;21906;50.812;7.132;2022-08-21T01:33:01;7.97;;;7.30;;
4106;SDS011;21906;50.812;7.132;2022-08-21T01:35:27;7.47;;;6.77;;
4106;SDS011;21906;50.812;7.132;2022-08-21T01:37:53;7.77;;;7.17;;
4106;SDS011;21906;50.812;7.132;2022-08-21T01:45:28;7.93;;;7.23;;
4106;SDS011;21906;50.812;7.132;2022-08-21T01:47:54;7.90;;;7.10;;
4106;SDS011;21906;50.812;7.132;2022-08-21T01:50:20;7.50;;;6.90;;
4106;SDS011;21906;50.812;7.132;2022-08-21T01:52:46;7.90;;;7.20;;
4106;SDS011;21906;50.812;7.132;2022-08-21T01:55:13;7.27;;;6.63;;
4106;SDS011;21906;50.812;7.132;2022-08-21T01:57:39;7.47;;;6.90;;
4106;SDS011;21906;50.812;7.132;2022-08-21T02:00:07;7.90;;;7.13;;
4106;SDS011;21906;50.812;7.132;2022-08-21T02:02:36;7.80;;;7.20;;
4106;SDS011;21906;50.812;7.132;2022-08-21T02:05:03;7.77;;;7.07;;
4106;SDS011;21906;50.812;7.132;2022-08-21T02:07:40;9.40;;;7.20;;
4106;SDS011;21906;50.812;7.132;2022-08-21T02:10:09;7.50;;;7.00;;
4106;SDS011;21906;50.812;7.132;2022-08-21T02:12:36;7.70;;;7.00;;
4106;SDS011;21906;50.812;7.132;2022-08-21T02:15:03;7.67;;;6.87;;
4106;SDS011;21906;50.812;7.132;2022-08-21T02:17:47;7.03;;;6.43;;
4106;SDS011;21906;50.812;7.132;2022-08-21T02:20:19;6.80;;;6.30;;
4106;SDS011;21906;50.812;7.132;2022-08-21T02:22:47;7.27;;;6.50;;
4106;SDS011;21906;50.812;7.132;2022-08-21T02:25:15;7.50;;;6.50;;
4106;SDS011;21906;50.812;7.132;2022-08-21T02:27:42;9.53;;;7.30;;
4106;SDS011;21906;50.812;7.132;2022-08-21T02:30:11;9.23;;;7.40;;
4106;SDS011;21906;50.812;7.132;2022-08-21T02:32:39;8.10;;;7.30;;
4106;SDS011;21906;50.812;7.132;2022-08-21T02:35:04;8.80;;;7.47;;
4106;SDS011;21906;50.812;7.132;2022-08-21T02:37:31;7.83;;;7.13;;
4106;SDS011;21906;50.812;7.132;2022-08-21T02:39:56;9.43;;;7.43;;
4106;SDS011;21906;50.812;7.132;2022-08-21T02:42:23;8.10;;;7.40;;
4106;SDS011;21906;50.812;7.132;2022-08-21T02:44:49;9.30;;;8.03;;
4106;SDS011;21906;50.812;7.132;2022-08-21T02:47:15;9.00;;;7.70;;
4106;SDS011;21906;50.812;7.132;2022-08-21T02:49:40;8.03;;;7.30;;
4106;SDS011;21906;50.812;7.132;2022-08-21T02:52:06;8.23;;;7.20;;
4106;SDS011;21906;50.812;7.132;2022-08-21T02:54:32;9.13;;;6.77;;
4106;SDS011;21906;50.812;7.132;2022-08-21T02:56:57;7.43;;;6.63;;
4106;SDS011;21906;50.812;7.132;2022-08-21T02:59:23;8.00;;;7.27;;
4106;SDS011;21906;50.812;7.132;2022-08-21T03:01:49;8.73;;;7.57;;
4106;SDS011;21906;50.812;7.132;2022-08-21T03:04:14;7.50;;;6.77;;
4106;SDS011;21906;50.812;7.132;2022-08-21T03:06:40;8.07;;;7.33;;
4106;SDS011;21906;50.812;7.132;2022-08-21T03:09:06;7.00;;;6.37;;
4106;SDS011;21906;50.812;7.132;2022-08-21T03:11:32;8.20;;;7.40;;
4106;SDS011;21906;50.812;7.132;2022-08-21T03:13:58;8.23;;;7.23;;
4106;SDS011;21906;50.812;7.132;2022-08-21T03:16:23;8.43;;;7.20;;
4106;SDS011;21906;50.812;7.132;2022-08-21T03:18:49;8.20;;;7.40;;
4106;SDS011;21906;50.812;7.132;2022-08-21T03:21:15;7.07;;;6.47;;
4106;SDS011;21906;50.812;7.132;2022-08-21T03:23:40;7.27;;;6.67;;
4106;SDS011;21906;50.812;7.132;2022-08-21T03:26:07;8.03;;;7.23;;
4106;SDS011;21906;50.812;7.132;2022-08-21T03:28:33;7.63;;;6.97;;
4106;SDS011;21906;50.812;7.132;2022-08-21T03:30:59;7.30;;;6.60;;
4106;SDS011;21906;50.812;7.132;2022-08-21T03:33:24;7.30;;;6.63;;
4106;SDS011;21906;50.812;7.132;2022-08-21T03:36:00;7.93;;;7.27;;
4106;SDS011;21906;50.812;7.132;2022-08-21T03:38:29;8.10;;;7.40;;
4106;SDS011;21906;50.812;7.132;2022-08-21T03:40:55;7.77;;;7.03;;
4106;SDS011;21906;50.812;7.132;2022-08-21T03:43:21;8.67;;;7.80;;
4106;SDS011;21906;50.812;7.132;2022-08-21T03:45:47;10.83;;;7.50;;
4106;SDS011;21906;50.812;7.132;2022-08-21T03:48:13;8.87;;;7.97;;
4106;SDS011;21906;50.812;7.132;2022-08-21T03:50:39;7.90;;;7.20;;
4106;SDS011;21906;50.812;7.132;2022-08-21T03:53:08;8.00;;;6.90;;
4106;SDS011;21906;50.812;7.132;2022-08-21T03:55:35;10.70;;;7.83;;
4106;SDS011;21906;50.812;7.132;2022-08-21T03:58:01;7.97;;;7.27;;
4106;SDS011;21906;50.812;7.132;2022-08-21T04:00:26;9.43;;;7.30;;
4106;SDS011;21906;50.812;7.132;2022-08-21T04:02:52;7.80;;;7.10;;
4106;SDS011;21906;50.812;7.132;2022-08-21T04:05:18;8.03;;;7.33;;
4106;SDS011;21906;50.812;7.132;2022-08-21T04:07:52;7.30;;;6.60;;
4106;SDS011;21906;50.812;7.132;2022-08-21T04:10:19;8.77;;;7.10;;
4106;SDS011;21906;50.812;7.132;2022-08-21T04:12:45;7.83;;;7.13;;
4106;SDS011;21906;50.812;7.132;2022-08-21T04:15:10;8.00;;;7.30;;
4106;SDS011;21906;50.812;7.132;2022-08-21T04:17:37;9.73;;;7.10;;
4106;SDS011;21906;50.812;7.132;2022-08-21T04:20:04;7.30;;;6.70;;
4106;SDS011;21906;50.812;7.132;2022-08-21T04:22:29;7.87;;;7.17;;
4106;SDS011;21906;50.812;7.132;2022-08-21T04:24:55;7.63;;;7.03;;
4106;SDS011;21906;50.812;7.132;2022-08-21T04:27:21;7.33;;;6.70;;
4106;SDS011;21906;50.812;7.132;2022-08-21T04:29:46;7.53;;;6.83;;
4106;SDS011;21906;50.812;7.132;2022-08-21T04:32:12;7.27;;;6.67;;
4106;SDS011;21906;50.812;7.132;2022-08-21T04:34:38;7.50;;;6.80;;
4106;SDS011;21906;50.812;7.132;2022-08-21T04:37:03;7.50;;;6.80;;
4106;SDS011;21906;50.812;7.132;2022-08-21T04:39:29;8.17;;;7.27;;
4106;SDS011;21906;50.812;7.132;2022-08-21T04:41:55;7.70;;;7.00;;
4106;SDS011;21906;50.812;7.132;2022-08-21T04:44:21;7.50;;;6.87;;
4106;SDS011;21906;50.812;7.132;2022-08-21T04:46:47;7.67;;;6.97;;
4106;SDS011;21906;50.812;7.132;2022-08-21T04:49:12;7.87;;;6.83;;
4106;SDS011;21906;50.812;7.132;2022-08-21T04:51:38;7.60;;;6.93;;
4106;SDS011;21906;50.812;7.132;2022-08-21T04:54:12;8.33;;;7.50;;
4106;SDS011;21906;50.812;7.132;2022-08-21T04:56:42;7.33;;;6.63;;
4106;SDS011;21906;50.812;7.132;2022-08-21T04:59:19;7.73;;;6.97;;
4106;SDS011;21906;50.812;7.132;2022-08-21T05:01:49;8.10;;;7.40;;
4106;SDS011;21906;50.812;7.132;2022-08-21T05:04:16;9.10;;;7.23;;
4106;SDS011;21906;50.812;7.132;2022-08-21T05:06:47;9.53;;;7.97;;
4106;SDS011;21906;50.812;7.132;2022-08-21T05:09:14;8.33;;;7.63;;
4106;SDS011;21906;50.812;7.132;2022-08-21T05:11:42;7.40;;;6.70;;
4106;SDS011;21906;50.812;7.132;2022-08-21T05:14:09;7.33;;;6.73;;
4106;SDS011;21906;50.812;7.132;2022-08-21T05:16:36;7.80;;;7.00;;
4106;SDS011;21906;50.812;7.132;2022-08-21T05:19:02;8.30;;;7.60;;
4106;SDS011;21906;50.812;7.132;2022-08-21T05:21:29;9.17;;;7.67;;
4106;SDS011;21906;50.812;7.132;2022-08-21T05:23:55;12.83;;;8.03;;
4106;SDS011;21906;50.812;7.132;2022-08-21T05:26:20;8.10;;;7.40;;
4106;SDS011;21906;50.812;7.132;2022-08-21T05:28:46;8.60;;;7.70;;
4106;SDS011;21906;50.812;7.132;2022-08-21T05:31:12;8.50;;;7.40;;
4106;SDS011;21906;50.812;7.132;2022-08-21T05:33:37;9.20;;;8.33;;
4106;SDS011;21906;50.812;7.132;2022-08-21T05:36:03;8.40;;;7.70;;
4106;SDS011;21906;50.812;7.132;2022-08-21T05:38:29;8.13;;;7.33;;
4106;SDS011;21906;50.812;7.132;2022-08-21T05:40:54;8.43;;;7.57;;
4106;SDS011;21906;50.812;7.132;2022-08-21T05:43:20;8.47;;;7.37;;
4106;SDS011;21906;50.812;7.132;2022-08-21T05:45:46;12.07;;;8.53;;
4106;SDS011;21906;50.812;7.132;2022-08-21T05:50:40;8.63;;;7.73;;
4106;SDS011;21906;50.812;7.132;2022-08-21T05:53:06;7.73;;;7.00;;
4106;SDS011;21906;50.812;7.132;2022-08-21T05:55:35;8.60;;;7.90;;
4106;SDS011;21906;50.812;7.132;2022-08-21T05:58:01;8.00;;;7.20;;
4106;SDS011;21906;50.812;7.132;2022-08-21T06:00:27;12.00;;;8.80;;
4106;SDS011;21906;50.812;7.132;2022-08-21T06:02:53;8.43;;;7.70;;
4106;SDS011;21906;50.812;7.132;2022-08-21T06:05:19;10.00;;;8.23;;
4106;SDS011;21906;50.812;7.132;2022-08-21T06:07:44;9.23;;;8.20;;
4106;SDS011;21906;50.812;7.132;2022-08-21T06:10:10;9.07;;;8.17;;
4106;SDS011;21906;50.812;7.132;2022-08-21T06:12:36;10.57;;;8.87;;
4106;SDS011;21906;50.812;7.132;2022-08-21T06:15:02;9.10;;;8.20;;
4106;SDS011;21906;50.812;7.132;2022-08-21T06:17:28;8.87;;;7.80;;
4106;SDS011;21906;50.812;7.132;2022-08-21T06:19:54;8.87;;;7.97;;
4106;SDS011;21906;50.812;7.132;2022-08-21T06:22:20;9.20;;;7.70;;
4106;SDS011;21906;50.812;7.132;2022-08-21T06:24:46;10.00;;;8.33;;
4106;SDS011;21906;50.812;7.132;2022-08-21T06:27:12;9.60;;;8.70;;
4106;SDS011;21906;50.812;7.132;2022-08-21T06:29:38;8.20;;;7.50;;
4106;SDS011;21906;50.812;7.132;2022-08-21T06:32:04;9.07;;;8.27;;
4106;SDS011;21906;50.812;7.132;2022-08-21T06:34:37;8.83;;;8.00;;
4106;SDS011;21906;50.812;7.132;2022-08-21T06:37:04;9.53;;;8.63;;
4106;SDS011;21906;50.812;7.132;2022-08-21T06:39:30;8.70;;;7.50;;
4106;SDS011;21906;50.812;7.132;2022-08-21T06:41:56;10.63;;;7.87;;
4106;SDS011;21906;50.812;7.132;2022-08-21T06:44:22;8.63;;;7.87;;
4106;SDS011;21906;50.812;7.132;2022-08-21T06:46:47;8.40;;;7.60;;
4106;SDS011;21906;50.812;7.132;2022-08-21T06:49:13;9.60;;;8.70;;
4106;SDS011;21906;50.812;7.132;2022-08-21T06:51:39;9.10;;;8.17;;
4106;SDS011;21906;50.812;7.132;2022-08-21T06:54:05;10.27;;;8.30;;
4106;SDS011;21906;50.812;7.132;2022-08-21T06:56:31;9.30;;;7.70;;
4106;SDS011;21906;50.812;7.132;2022-08-21T06:58:58;8.90;;;7.90;;
4106;SDS011;21906;50.812;7.132;2022-08-21T07:01:25;9.40;;;8.50;;
4106;SDS011;21906;50.812;7.132;2022-08-21T07:03:51;9.40;;;8.50;;
4106;SDS011;21906;50.812;7.132;2022-08-21T07:06:17;10.70;;;9.20;;
4106;SDS011;21906;50.812;7.132;2022-08-21T07:08:43;9.27;;;8.37;;
4106;SDS011;21906;50.812;7.132;2022-08-21T07:11:11;10.20;;;7.73;;
4106;SDS011;21906;50.812;7.132;2022-08-21T07:13:39;10.30;;;9.30;;
4106;SDS011;21906;50.812;7.132;2022-08-21T07:16:05;11.20;;;7.67;;
4106;SDS011;21906;50.812;7.132;2022-08-21T07:18:31;9.00;;;8.10;;
4106;SDS011;21906;50.812;7.132;2022-08-21T07:20:56;7.77;;;7.10;;
4106;SDS011;21906;50.812;7.132;2022-08-21T07:23:24;9.07;;;8.27;;
4106;SDS011;21906;50.812;7.132;2022-08-21T07:25:53;10.03;;;7.77;;
4106;SDS011;21906;50.812;7.132;2022-08-21T07:28:19;7.73;;;6.93;;
4106;SDS011;21906;50.812;7.132;2022-08-21T07:30:45;7.80;;;7.07;;
4106;SDS011;21906;50.812;7.132;2022-08-21T07:33:15;8.63;;;7.80;;
4106;SDS011;21906;50.812;7.132;2022-08-21T07:35:41;7.90;;;7.23;;
4106;SDS011;21906;50.812;7.132;2022-08-21T07:38:07;7.47;;;6.80;;
4106;SDS011;21906;50.812;7.132;2022-08-21T07:40:32;7.50;;;6.93;;
4106;SDS011;21906;50.812;7.132;2022-08-21T07:42:58;8.60;;;7.80;;
4106;SDS011;21906;50.812;7.132;2022-08-21T07:45:24;9.97;;;7.47;;
4106;SDS011;21906;50.812;7.132;2022-08-21T07:47:50;9.60;;;8.50;;
4106;SDS011;21906;50.812;7.132;2022-08-21T07:50:16;7.67;;;7.07;;
4106;SDS011;21906;50.812;7.132;2022-08-21T07:52:43;10.93;;;7.43;;
4106;SDS011;21906;50.812;7.132;2022-08-21T07:55:11;7.80;;;6.83;;
4106;SDS011;21906;50.812;7.132;2022-08-21T07:57:38;7.23;;;6.50;;
4106;SDS011;21906;50.812;7.132;2022-08-21T08:00:05;7.40;;;6.70;;
4106;SDS011;21906;50.812;7.132;2022-08-21T08:02:34;8.77;;;6.53;;
4106;SDS011;21906;50.812;7.132;2022-08-21T08:05:00;6.20;;;5.60;;
4106;SDS011;21906;50.812;7.132;2022-08-21T08:07:28;8.03;;;7.00;;
4106;SDS011;21906;50.812;7.132;2022-08-21T08:09:54;8.93;;;7.00;;
4106;SDS011;21906;50.812;7.132;2022-08-21T08:12:19;8.30;;;6.80;;
4106;SDS011;21906;50.812;7.132;2022-08-21T08:14:45;6.53;;;5.93;;
4106;SDS011;21906;50.812;7.132;2022-08-21T08:17:11;6.83;;;6.37;;
4106;SDS011;21906;50.812;7.132;2022-08-21T08:19:38;7.27;;;6.57;;
4106;SDS011;21906;50.812;7.132;2022-08-21T08:22:13;6.40;;;5.80;;
4106;SDS011;21906;50.812;7.132;2022-08-21T08:24:46;7.13;;;5.13;;
4106;SDS011;21906;50.812;7.132;2022-08-21T08:27:12;7.83;;;6.00;;
4106;SDS011;21906;50.812;7.132;2022-08-21T08:29:37;6.97;;;5.37;;
4106;SDS011;21906;50.812;7.132;2022-08-21T08:32:04;6.60;;;6.00;;
4106;SDS011;21906;50.812;7.132;2022-08-21T08:34:32;5.97;;;5.43;;
4106;SDS011;21906;50.812;7.132;2022-08-21T08:36:59;5.43;;;4.67;;
4106;SDS011;21906;50.812;7.132;2022-08-21T08:39:25;9.70;;;5.53;;
4106;SDS011;21906;50.812;7.132;2022-08-21T08:41:54;10.23;;;5.27;;
4106;SDS011;21906;50.812;7.132;2022-08-21T08:44:27;5.37;;;4.90;;
4106;SDS011;21906;50.812;7.132;2022-08-21T08:46:53;5.67;;;5.17;;
4106;SDS011;21906;50.812;7.132;2022-08-21T08:49:26;7.10;;;4.97;;
4106;SDS011;21906;50.812;7.132;2022-08-21T08:54:44;5.10;;;4.70;;
4106;SDS011;21906;50.812;7.132;2022-08-21T08:57:15;6.17;;;4.90;;
4106;SDS011;21906;50.812;7.132;2022-08-21T08:59:46;6.00;;;4.90;;
4106;SDS011;21906;50.812;7.132;2022-08-21T09:02:15;4.70;;;4.30;;
4106;SDS011;21906;50.812;7.132;2022-08-21T09:04:42;6.53;;;4.73;;
4106;SDS011;21906;50.812;7.132;2022-08-21T09:07:19;4.97;;;4.50;;
4106;SDS011;21906;50.812;7.132;2022-08-21T09:10:10;9.17;;;4.20;;
4106;SDS011;21906;50.812;7.132;2022-08-21T09:28:36;4.00;;;3.70;;
4106;SDS011;21906;50.812;7.132;2022-08-21T09:31:05;7.10;;;4.10;;
4106;SDS011;21906;50.812;7.132;2022-08-21T09:33:32;4.40;;;3.30;;
4106;SDS011;21906;50.812;7.132;2022-08-21T09:35:58;4.00;;;3.70;;
4106;SDS011;21906;50.812;7.132;2022-08-21T09:38:29;5.10;;;4.13;;
4106;SDS011;21906;50.812;7.132;2022-08-21T09:41:07;5.07;;;3.70;;
4106;SDS011;21906;50.812;7.132;2022-08-21T09:43:36;4.00;;;3.13;;
4106;SDS011;21906;50.812;7.132;2022-08-21T09:46:07;3.63;;;3.30;;
4106;SDS011;21906;50.812;7.132;2022-08-21T09:48:42;7.33;;;4.60;;
4106;SDS011;21906;50.812;7.132;2022-08-21T09:51:35;4.00;;;3.30;;
4106;SDS011;21906;50.812;7.132;2022-08-21T09:56:40;3.33;;;3.03;;
4106;SDS011;21906;50.812;7.132;2022-08-21T09:59:36;6.37;;;3.90;;
4106;SDS011;21906;50.812;7.132;2022-08-21T10:04:56;5.70;;;3.30;;
4106;SDS011;21906;50.812;7.132;2022-08-21T10:07:42;8.17;;;3.70;;
4106;SDS011;21906;50.812;7.132;2022-08-21T10:10:13;3.60;;;3.37;;
4106;SDS011;21906;50.812;7.132;2022-08-21T10:12:48;7.70;;;3.90;;
4106;SDS011;21906;50.812;7.132;2022-08-21T10:21:04;3.80;;;3.00;;
4106;SDS011;21906;50.812;7.132;2022-08-21T10:37:12;3.03;;;2.60;;
4106;SDS011;21906;50.812;7.132;2022-08-21T10:40:15;4.50;;;2.60;;
4106;SDS011;21906;50.812;7.132;2022-08-21T10:47:50;2.93;;;2.60;;
4106;SDS011;21906;50.812;7.132;2022-08-21T10:53:19;5.73;;;3.20;;
4106;SDS011;21906;50.812;7.132;2022-08-21T10:55:56;6.67;;;2.90;;
4106;SDS011;21906;50.812;7.132;2022-08-21T10:58:31;2.77;;;2.57;;
4106;SDS011;21906;50.812;7.132;2022-08-21T11:01:23;2.90;;;2.50;;
4106;SDS011;21906;50.812;7.132;2022-08-21T11:04:28;2.57;;;2.30;;
4106;SDS011;21906;50.812;7.132;2022-08-21T11:06:53;4.40;;;2.57;;
4106;SDS011;21906;50.812;7.132;2022-08-21T11:09:26;2.80;;;2.50;;
4106;SDS011;21906;50.812;7.132;2022-08-21T11:17:29;3.43;;;2.53;;
4106;SDS011;21906;50.812;7.132;2022-08-21T11:22:32;2.40;;;2.10;;
4106;SDS011;21906;50.812;7.132;2022-08-21T11:25:39;5.10;;;2.37;;
4106;SDS011;21906;50.812;7.132;2022-08-21T11:45:07;3.63;;;2.40;;
4106;SDS011;21906;50.812;7.132;2022-08-21T11:50:18;4.37;;;2.73;;
4106;SDS011;21906;50.812;7.132;2022-08-21T11:52:53;4.23;;;2.50;;
4106;SDS011;21906;50.812;7.132;2022-08-21T11:56:13;2.80;;;2.60;;
4106;SDS011;21906;50.812;7.132;2022-08-21T11:58:24;2.40;;;2.20;;
4106;SDS011;21906;50.812;7.132;2022-08-21T12:01:06;3.67;;;2.47;;
4106;SDS011;21906;50.812;7.132;2022-08-21T12:03:35;3.93;;;2.37;;
4106;SDS011;21906;50.812;7.132;2022-08-21T12:06:13;3.60;;;2.50;;
4106;SDS011;21906;50.812;7.132;2022-08-21T12:08:43;2.87;;;2.57;;
4106;SDS011;21906;50.812;7.132;2022-08-21T12:13:51;3.00;;;2.30;;
4106;SDS011;21906;50.812;7.132;2022-08-21T12:19:06;2.80;;;2.50;;
4106;SDS011;21906;50.812;7.132;2022-08-21T12:21:33;5.17;;;2.33;;
4106;SDS011;21906;50.812;7.132;2022-08-21T12:26:51;3.30;;;2.30;;
4106;SDS011;21906;50.812;7.132;2022-08-21T12:34:36;2.47;;;2.27;;
4106;SDS011;21906;50.812;7.132;2022-08-21T12:37:15;4.30;;;2.50;;
4106;SDS011;21906;50.812;7.132;2022-08-21T12:39:52;3.57;;;2.60;;
4106;SDS011;21906;50.812;7.132;2022-08-21T12:42:22;2.80;;;2.50;;
4106;SDS011;21906;50.812;7.132;2022-08-21T12:44:55;3.30;;;2.20;;
4106;SDS011;21906;50.812;7.132;2022-08-21T12:47:27;2.67;;;2.37;;
4106;SDS011;21906;50.812;7.132;2022-08-21T12:50:00;2.03;;;1.93;;
4106;SDS011;21906;50.812;7.132;2022-08-21T12:52:38;2.60;;;2.40;;
4106;SDS011;21906;50.812;7.132;2022-08-21T12:55:14;2.50;;;2.30;;
4106;SDS011;21906;50.812;7.132;2022-08-21T12:57:49;2.60;;;2.33;;
4106;SDS011;21906;50.812;7.132;2022-08-21T13:00:19;2.90;;;2.50;;
4106;SDS011;21906;50.812;7.132;2022-08-21T13:02:49;2.23;;;1.97;;
4106;SDS011;21906;50.812;7.132;2022-08-21T13:05:23;2.40;;;2.20;;
4106;SDS011;21906;50.812;7.132;2022-08-21T13:07:58;2.77;;;2.20;;
4106;SDS011;21906;50.812;7.132;2022-08-21T13:10:29;2.47;;;2.27;;
4106;SDS011;21906;50.812;7.132;2022-08-21T13:12:58;2.70;;;2.50;;
4106;SDS011;21906;50.812;7.132;2022-08-21T13:15:28;3.80;;;2.40;;
4106;SDS011;21906;50.812;7.132;2022-08-21T13:17:56;2.83;;;2.43;;
4106;SDS011;21906;50.812;7.132;2022-08-21T13:20:30;2.47;;;2.20;;
4106;SDS011;21906;50.812;7.132;2022-08-21T13:22:58;2.90;;;2.37;;
4106;SDS011;21906;50.812;7.132;2022-08-21T13:25:33;2.50;;;2.30;;
4106;SDS011;21906;50.812;7.132;2022-08-21T13:28:09;2.30;;;2.10;;
4106;SDS011;21906;50.812;7.132;2022-08-21T13:30:44;3.23;;;2.43;;
4106;SDS011;21906;50.812;7.132;2022-08-21T13:33:16;2.43;;;2.27;;
4106;SDS011;21906;50.812;7.132;2022-08-21T13:36:18;3.30;;;2.40;;
4106;SDS011;21906;50.812;7.132;2022-08-21T13:38:40;2.80;;;2.60;;
4106;SDS011;21906;50.812;7.132;2022-08-21T13:41:13;2.40;;;2.20;;
4106;SDS011;21906;50.812;7.132;2022-08-21T13:43:50;3.37;;;2.80;;
4106;SDS011;21906;50.812;7.132;2022-08-21T13:46:24;3.77;;;2.87;;
4106;SDS011;21906;50.812;7.132;2022-08-21T13:48:53;3.23;;;2.67;;
4106;SDS011;21906;50.812;7.132;2022-08-21T13:51:20;3.03;;;2.73;;
4106;SDS011;21906;50.812;7.132;2022-08-21T13:53:48;2.60;;;2.40;;
4106;SDS011;21906;50.812;7.132;2022-08-21T13:58:55;3.60;;;2.30;;
4106;SDS011;21906;50.812;7.132;2022-08-21T14:03:55;2.43;;;2.23;;
4106;SDS011;21906;50.812;7.132;2022-08-21T14:06:26;2.53;;;2.33;;
4106;SDS011;21906;50.812;7.132;2022-08-21T14:08:58;2.53;;;2.23;;
4106;SDS011;21906;50.812;7.132;2022-08-21T14:11:26;2.73;;;2.10;;
4106;SDS011;21906;50.812;7.132;2022-08-21T14:13:58;3.47;;;2.30;;
4106;SDS011;21906;50.812;7.132;2022-08-21T14:16:29;2.83;;;2.50;;
4106;SDS011;21906;50.812;7.132;2022-08-21T14:19:17;3.57;;;2.70;;
4106;SDS011;21906;50.812;7.132;2022-08-21T14:21:48;3.10;;;2.20;;
4106;SDS011;21906;50.812;7.132;2022-08-21T14:26:49;2.57;;;2.37;;
4106;SDS011;21906;50.812;7.132;2022-08-21T14:29:21;2.43;;;2.20;;
4106;SDS011;21906;50.812;7.132;2022-08-21T14:31:54;2.40;;;2.20;;
4106;SDS011;21906;50.812;7.132;2022-08-21T14:34:25;3.07;;;2.30;;
4106;SDS011;21906;50.812;7.132;2022-08-21T14:36:54;2.80;;;2.43;;
4106;SDS011;21906;50.812;7.132;2022-08-21T14:39:21;2.70;;;2.47;;
4106;SDS011;21906;50.812;7.132;2022-08-21T14:41:47;3.17;;;2.60;;
4106;SDS011;21906;50.812;7.132;2022-08-21T14:44:14;4.83;;;2.23;;
4106;SDS011;21906;50.812;7.132;2022-08-21T14:46:41;3.40;;;2.30;;
4106;SDS011;21906;50.812;7.132;2022-08-21T14:49:07;2.33;;;2.13;;
4106;SDS011;21906;50.812;7.132;2022-08-21T14:51:33;1.80;;;1.70;;
4106;SDS011;21906;50.812;7.132;2022-08-21T14:53:59;3.07;;;2.43;;
4106;SDS011;21906;50.812;7.132;2022-08-21T14:56:24;2.30;;;2.10;;
4106;SDS011;21906;50.812;7.132;2022-08-21T14:58:51;3.43;;;2.47;;
4106;SDS011;21906;50.812;7.132;2022-08-21T15:01:18;2.23;;;2.03;;
4106;SDS011;21906;50.812;7.132;2022-08-21T15:03:46;2.17;;;1.97;;
4106;SDS011;21906;50.812;7.132;2022-08-21T15:06:14;2.10;;;2.00;;
4106;SDS011;21906;50.812;7.132;2022-08-21T15:08:41;3.23;;;2.30;;
4106;SDS011;21906;50.812;7.132;2022-08-21T15:11:07;2.90;;;2.60;;
4106;SDS011;21906;50.812;7.132;2022-08-21T15:13:36;3.13;;;2.60;;
4106;SDS011;21906;50.812;7.132;2022-08-21T15:16:02;3.30;;;2.67;;
4106;SDS011;21906;50.812;7.132;2022-08-21T15:18:29;4.27;;;2.70;;
4106;SDS011;21906;50.812;7.132;2022-08-21T15:20:55;3.63;;;2.30;;
4106;SDS011;21906;50.812;7.132;2022-08-21T15:23:22;2.90;;;2.50;;
4106;SDS011;21906;50.812;7.132;2022-08-21T15:25:48;2.50;;;2.40;;
4106;SDS011;21906;50.812;7.132;2022-08-21T15:28:15;2.97;;;2.50;;
4106;SDS011;21906;50.812;7.132;2022-08-21T15:30:42;2.87;;;2.67;;
4106;SDS011;21906;50.812;7.132;2022-08-21T15:33:08;3.20;;;2.40;;
4106;SDS011;21906;50.812;7.132;2022-08-21T15:35:35;3.03;;;2.37;;
4106;SDS011;21906;50.812;7.132;2022-08-21T15:38:01;2.37;;;2.17;;
4106;SDS011;21906;50.812;7.132;2022-08-21T15:40:28;3.20;;;2.50;;
4106;SDS011;21906;50.812;7.132;2022-08-21T15:42:56;2.63;;;2.43;;
4106;SDS011;21906;50.812;7.132;2022-08-21T15:45:24;2.33;;;2.13;;
4106;SDS011;21906;50.812;7.132;2022-08-21T15:47:51;3.90;;;2.37;;
4106;SDS011;21906;50.812;7.132;2022-08-21T15:50:16;2.80;;;2.03;;
4106;SDS011;21906;50.812;7.132;2022-08-21T15:52:43;3.17;;;2.20;;
4106;SDS011;21906;50.812;7.132;2022-08-21T15:55:10;3.70;;;2.17;;
4106;SDS011;21906;50.812;7.132;2022-08-21T15:57:37;2.10;;;2.00;;
4106;SDS011;21906;50.812;7.132;2022-08-21T16:00:11;2.50;;;2.30;;
4106;SDS011;21906;50.812;7.132;2022-08-21T16:02:40;2.53;;;2.30;;
4106;SDS011;21906;50.812;7.132;2022-08-21T16:05:08;2.43;;;2.23;;
4106;SDS011;21906;50.812;7.132;2022-08-21T16:07:37;2.30;;;2.10;;
4106;SDS011;21906;50.812;7.132;2022-08-21T16:10:03;2.73;;;2.10;;
4106;SDS011;21906;50.812;7.132;2022-08-21T16:12:31;2.60;;;2.40;;
4106;SDS011;21906;50.812;7.132;2022-08-21T16:15:00;2.20;;;2.00;;
4106;SDS011;21906;50.812;7.132;2022-08-21T16:17:32;2.40;;;2.20;;
4106;SDS011;21906;50.812;7.132;2022-08-21T16:19:59;2.60;;;2.17;;
4106;SDS011;21906;50.812;7.132;2022-08-21T16:22:28;2.10;;;1.73;;
4106;SDS011;21906;50.812;7.132;2022-08-21T16:24:54;2.40;;;2.20;;
4106;SDS011;21906;50.812;7.132;2022-08-21T16:27:19;3.00;;;2.03;;
4106;SDS011;21906;50.812;7.132;2022-08-21T16:29:45;2.90;;;2.27;;
4106;SDS011;21906;50.812;7.132;2022-08-21T16:32:11;4.77;;;2.40;;
4106;SDS011;21906;50.812;7.132;2022-08-21T16:34:39;2.63;;;2.30;;
4106;SDS011;21906;50.812;7.132;2022-08-21T16:37:09;2.50;;;2.30;;
4106;SDS011;21906;50.812;7.132;2022-08-21T16:39:34;3.90;;;2.30;;
4106;SDS011;21906;50.812;7.132;2022-08-21T16:42:00;2.47;;;2.27;;
4106;SDS011;21906;50.812;7.132;2022-08-21T16:44:26;2.40;;;2.20;;
4106;SDS011;21906;50.812;7.132;2022-08-21T16:46:52;2.40;;;2.20;;
4106;SDS011;21906;50.812;7.132;2022-08-21T16:49:18;2.30;;;2.10;;
4106;SDS011;21906;50.812;7.132;2022-08-21T16:51:44;2.30;;;2.00;;
4106;SDS011;21906;50.812;7.132;2022-08-21T16:54:10;2.10;;;1.80;;
4106;SDS011;21906;50.812;7.132;2022-08-21T16:56:36;4.40;;;2.27;;
4106;SDS011;21906;50.812;7.132;2022-08-21T16:59:03;4.40;;;2.30;;